sensor_id;sensor_type;location;lat;lon;timestamp;P1;durP1;ratioP1;P2;durP2;ratioP2
13230;SDS011;6681;53.254;10.398;2023-05-10T00:00:07;4.53;;;4.13;;
13230;SDS011;6681;53.254;10.398;2023-05-10T00:02:34;4.87;;;2.53;;
13230;SDS011;6681;53.254;10.398;2023-05-10T00:04:59;7.67;;;2.83;;
13230;SDS011;6681;53.254;10.398;2023-05-10T00:07:26;7.70;;;3.03;;
13230;SDS011;6681;53.254;10.398;2023-05-10T00:09:51;5.97;;;3.30;;
13230;SDS011;6681;53.254;10.398;2023-05-10T00:12:17;3.70;;;2.50;;
13230;SDS011;6681;53.254;10.398;2023-05-10T00:14:43;9.83;;;3.80;;
13230;SDS011;6681;53.254;10.398;2023-05-10T00:17:09;3.20;;;3.00;;
13230;SDS011;6681;53.254;10.398;2023-05-10T00:19:34;3.90;;;3.10;;
13230;SDS011;6681;53.254;10.398;2023-05-10T00:22:00;2.83;;;2.63;;
13230;SDS011;6681;53.254;10.398;2023-05-10T00:24:25;4.13;;;2.80;;
13230;SDS011;6681;53.254;10.398;2023-05-10T00:26:51;3.67;;;3.33;;
13230;SDS011;6681;53.254;10.398;2023-05-10T00:29:17;3.63;;;2.87;;
13230;SDS011;6681;53.254;10.398;2023-05-10T00:31:42;5.97;;;3.83;;
13230;SDS011;6681;53.254;10.398;2023-05-10T00:34:08;3.37;;;3.07;;
13230;SDS011;6681;53.254;10.398;2023-05-10T00:36:34;6.00;;;3.00;;
13230;SDS011;6681;53.254;10.398;2023-05-10T00:39:00;6.70;;;2.83;;
13230;SDS011;6681;53.254;10.398;2023-05-10T00:41:25;3.57;;;3.27;;
13230;SDS011;6681;53.254;10.398;2023-05-10T00:43:51;6.13;;;2.90;;
13230;SDS011;6681;53.254;10.398;2023-05-10T00:46:16;5.10;;;3.37;;
13230;SDS011;6681;53.254;10.398;2023-05-10T00:48:43;5.87;;;2.97;;
13230;SDS011;6681;53.254;10.398;2023-05-10T00:51:10;8.10;;;3.50;;
13230;SDS011;6681;53.254;10.398;2023-05-10T00:53:35;3.77;;;3.37;;
13230;SDS011;6681;53.254;10.398;2023-05-10T00:56:01;3.97;;;3.27;;
13230;SDS011;6681;53.254;10.398;2023-05-10T00:58:28;4.27;;;2.80;;
13230;SDS011;6681;53.254;10.398;2023-05-10T01:00:55;4.80;;;3.90;;
13230;SDS011;6681;53.254;10.398;2023-05-10T01:03:22;4.97;;;3.13;;
13230;SDS011;6681;53.254;10.398;2023-05-10T01:05:48;7.07;;;3.93;;
13230;SDS011;6681;53.254;10.398;2023-05-10T01:08:14;4.70;;;3.83;;
13230;SDS011;6681;53.254;10.398;2023-05-10T01:10:40;6.60;;;3.40;;
13230;SDS011;6681;53.254;10.398;2023-05-10T01:13:08;2.93;;;2.70;;
13230;SDS011;6681;53.254;10.398;2023-05-10T01:15:34;3.43;;;3.13;;
13230;SDS011;6681;53.254;10.398;2023-05-10T01:18:00;3.73;;;3.43;;
13230;SDS011;6681;53.254;10.398;2023-05-10T01:20:29;5.40;;;2.87;;
13230;SDS011;6681;53.254;10.398;2023-05-10T01:34:26;9.30;;;3.43;;
13230;SDS011;6681;53.254;10.398;2023-05-10T01:37:05;5.17;;;3.23;;
13230;SDS011;6681;53.254;10.398;2023-05-10T01:39:45;2.77;;;2.57;;
13230;SDS011;6681;53.254;10.398;2023-05-10T01:42:22;5.53;;;3.20;;
13230;SDS011;6681;53.254;10.398;2023-05-10T01:48:08;6.27;;;3.50;;
13230;SDS011;6681;53.254;10.398;2023-05-10T01:50:35;5.13;;;3.40;;
13230;SDS011;6681;53.254;10.398;2023-05-10T01:53:05;5.23;;;3.87;;
13230;SDS011;6681;53.254;10.398;2023-05-10T01:55:33;4.23;;;3.23;;
13230;SDS011;6681;53.254;10.398;2023-05-10T01:58:06;5.57;;;3.03;;
13230;SDS011;6681;53.254;10.398;2023-05-10T02:00:35;4.03;;;2.47;;
13230;SDS011;6681;53.254;10.398;2023-05-10T02:03:04;5.57;;;3.33;;
13230;SDS011;6681;53.254;10.398;2023-05-10T02:05:32;4.77;;;3.00;;
13230;SDS011;6681;53.254;10.398;2023-05-10T02:07:59;3.93;;;3.27;;
13230;SDS011;6681;53.254;10.398;2023-05-10T02:10:27;3.30;;;3.07;;
13230;SDS011;6681;53.254;10.398;2023-05-10T02:12:54;3.73;;;3.30;;
13230;SDS011;6681;53.254;10.398;2023-05-10T02:15:23;8.57;;;3.20;;
13230;SDS011;6681;53.254;10.398;2023-05-10T02:17:50;6.73;;;3.30;;
13230;SDS011;6681;53.254;10.398;2023-05-10T02:20:20;3.90;;;3.53;;
13230;SDS011;6681;53.254;10.398;2023-05-10T02:22:48;5.00;;;2.80;;
13230;SDS011;6681;53.254;10.398;2023-05-10T02:25:16;8.87;;;3.20;;
13230;SDS011;6681;53.254;10.398;2023-05-10T02:27:44;3.70;;;3.17;;
13230;SDS011;6681;53.254;10.398;2023-05-10T02:30:11;4.87;;;3.50;;
13230;SDS011;6681;53.254;10.398;2023-05-10T02:32:37;5.17;;;3.10;;
13230;SDS011;6681;53.254;10.398;2023-05-10T02:35:04;8.67;;;4.67;;
13230;SDS011;6681;53.254;10.398;2023-05-10T02:37:31;4.80;;;3.80;;
13230;SDS011;6681;53.254;10.398;2023-05-10T02:39:58;4.47;;;3.90;;
13230;SDS011;6681;53.254;10.398;2023-05-10T02:42:27;4.50;;;4.07;;
13230;SDS011;6681;53.254;10.398;2023-05-10T02:44:59;6.17;;;3.43;;
13230;SDS011;6681;53.254;10.398;2023-05-10T02:47:26;4.03;;;3.63;;
13230;SDS011;6681;53.254;10.398;2023-05-10T02:49:52;3.60;;;3.30;;
13230;SDS011;6681;53.254;10.398;2023-05-10T02:52:23;3.60;;;3.30;;
13230;SDS011;6681;53.254;10.398;2023-05-10T02:54:54;3.27;;;3.00;;
13230;SDS011;6681;53.254;10.398;2023-05-10T02:57:28;7.37;;;3.53;;
13230;SDS011;6681;53.254;10.398;2023-05-10T02:59:59;4.37;;;3.60;;
13230;SDS011;6681;53.254;10.398;2023-05-10T03:02:26;3.93;;;3.17;;
13230;SDS011;6681;53.254;10.398;2023-05-10T03:04:51;5.13;;;3.57;;
13230;SDS011;6681;53.254;10.398;2023-05-10T03:07:17;3.20;;;2.93;;
13230;SDS011;6681;53.254;10.398;2023-05-10T03:09:46;5.43;;;3.10;;
13230;SDS011;6681;53.254;10.398;2023-05-10T03:17:54;4.03;;;3.17;;
13230;SDS011;6681;53.254;10.398;2023-05-10T03:20:31;6.37;;;3.00;;
13230;SDS011;6681;53.254;10.398;2023-05-10T03:23:04;5.13;;;3.20;;
13230;SDS011;6681;53.254;10.398;2023-05-10T03:25:57;8.83;;;3.67;;
13230;SDS011;6681;53.254;10.398;2023-05-10T03:28:24;5.67;;;3.20;;
13230;SDS011;6681;53.254;10.398;2023-05-10T03:30:52;3.53;;;3.23;;
13230;SDS011;6681;53.254;10.398;2023-05-10T03:33:21;7.30;;;4.57;;
13230;SDS011;6681;53.254;10.398;2023-05-10T03:35:47;3.70;;;3.40;;
13230;SDS011;6681;53.254;10.398;2023-05-10T03:38:13;4.37;;;3.67;;
13230;SDS011;6681;53.254;10.398;2023-05-10T03:40:38;6.63;;;4.83;;
13230;SDS011;6681;53.254;10.398;2023-05-10T03:43:04;4.60;;;4.20;;
13230;SDS011;6681;53.254;10.398;2023-05-10T03:45:30;4.67;;;4.17;;
13230;SDS011;6681;53.254;10.398;2023-05-10T03:47:56;3.87;;;3.57;;
13230;SDS011;6681;53.254;10.398;2023-05-10T03:50:23;4.87;;;3.57;;
13230;SDS011;6681;53.254;10.398;2023-05-10T03:52:48;3.67;;;3.27;;
13230;SDS011;6681;53.254;10.398;2023-05-10T03:55:14;5.10;;;4.03;;
13230;SDS011;6681;53.254;10.398;2023-05-10T03:57:41;5.27;;;3.70;;
13230;SDS011;6681;53.254;10.398;2023-05-10T04:00:07;4.70;;;4.30;;
13230;SDS011;6681;53.254;10.398;2023-05-10T04:02:33;5.53;;;3.93;;
13230;SDS011;6681;53.254;10.398;2023-05-10T04:04:59;6.17;;;3.93;;
13230;SDS011;6681;53.254;10.398;2023-05-10T04:07:25;7.13;;;4.20;;
13230;SDS011;6681;53.254;10.398;2023-05-10T04:09:51;3.13;;;2.83;;
13230;SDS011;6681;53.254;10.398;2023-05-10T04:12:17;5.47;;;3.37;;
13230;SDS011;6681;53.254;10.398;2023-05-10T04:14:42;5.77;;;3.53;;
13230;SDS011;6681;53.254;10.398;2023-05-10T04:17:08;5.60;;;4.57;;
13230;SDS011;6681;53.254;10.398;2023-05-10T04:19:34;5.37;;;3.60;;
13230;SDS011;6681;53.254;10.398;2023-05-10T04:21:59;4.27;;;3.23;;
13230;SDS011;6681;53.254;10.398;2023-05-10T04:24:26;5.03;;;3.37;;
13230;SDS011;6681;53.254;10.398;2023-05-10T04:26:53;7.03;;;4.20;;
13230;SDS011;6681;53.254;10.398;2023-05-10T04:29:19;6.10;;;4.47;;
13230;SDS011;6681;53.254;10.398;2023-05-10T04:31:45;3.17;;;2.90;;
13230;SDS011;6681;53.254;10.398;2023-05-10T04:34:11;6.57;;;3.73;;
13230;SDS011;6681;53.254;10.398;2023-05-10T04:36:37;4.13;;;3.83;;
13230;SDS011;6681;53.254;10.398;2023-05-10T04:39:03;4.37;;;3.97;;
13230;SDS011;6681;53.254;10.398;2023-05-10T04:41:28;5.63;;;4.13;;
13230;SDS011;6681;53.254;10.398;2023-05-10T04:43:54;4.50;;;4.07;;
13230;SDS011;6681;53.254;10.398;2023-05-10T04:46:20;4.53;;;4.10;;
13230;SDS011;6681;53.254;10.398;2023-05-10T04:48:46;3.13;;;2.83;;
13230;SDS011;6681;53.254;10.398;2023-05-10T04:51:12;3.60;;;3.27;;
13230;SDS011;6681;53.254;10.398;2023-05-10T04:53:38;3.00;;;2.70;;
13230;SDS011;6681;53.254;10.398;2023-05-10T04:56:03;4.17;;;3.47;;
13230;SDS011;6681;53.254;10.398;2023-05-10T04:58:29;4.87;;;2.63;;
13230;SDS011;6681;53.254;10.398;2023-05-10T05:00:55;8.33;;;3.30;;
13230;SDS011;6681;53.254;10.398;2023-05-10T05:03:21;5.83;;;3.03;;
13230;SDS011;6681;53.254;10.398;2023-05-10T05:05:47;3.93;;;3.63;;
13230;SDS011;6681;53.254;10.398;2023-05-10T05:08:12;4.43;;;3.03;;
13230;SDS011;6681;53.254;10.398;2023-05-10T05:10:38;8.63;;;4.57;;
13230;SDS011;6681;53.254;10.398;2023-05-10T05:13:04;6.50;;;3.40;;
13230;SDS011;6681;53.254;10.398;2023-05-10T05:15:30;3.77;;;3.40;;
13230;SDS011;6681;53.254;10.398;2023-05-10T05:17:55;4.67;;;3.00;;
13230;SDS011;6681;53.254;10.398;2023-05-10T05:20:21;4.20;;;3.60;;
13230;SDS011;6681;53.254;10.398;2023-05-10T05:22:47;4.00;;;3.60;;
13230;SDS011;6681;53.254;10.398;2023-05-10T05:25:12;8.67;;;3.47;;
13230;SDS011;6681;53.254;10.398;2023-05-10T05:27:38;4.67;;;3.83;;
13230;SDS011;6681;53.254;10.398;2023-05-10T05:30:04;4.23;;;3.80;;
13230;SDS011;6681;53.254;10.398;2023-05-10T05:32:31;3.23;;;2.93;;
13230;SDS011;6681;53.254;10.398;2023-05-10T05:34:57;3.77;;;3.40;;
13230;SDS011;6681;53.254;10.398;2023-05-10T05:37:22;4.20;;;3.80;;
13230;SDS011;6681;53.254;10.398;2023-05-10T05:39:49;3.90;;;3.60;;
13230;SDS011;6681;53.254;10.398;2023-05-10T05:42:15;5.93;;;3.13;;
13230;SDS011;6681;53.254;10.398;2023-05-10T05:44:42;3.77;;;3.20;;
13230;SDS011;6681;53.254;10.398;2023-05-10T05:47:08;3.93;;;3.20;;
13230;SDS011;6681;53.254;10.398;2023-05-10T05:49:34;6.60;;;3.20;;
13230;SDS011;6681;53.254;10.398;2023-05-10T05:52:03;4.27;;;3.30;;
13230;SDS011;6681;53.254;10.398;2023-05-10T05:54:29;5.13;;;3.50;;
13230;SDS011;6681;53.254;10.398;2023-05-10T05:56:58;9.53;;;3.93;;
13230;SDS011;6681;53.254;10.398;2023-05-10T05:59:25;4.33;;;3.13;;
13230;SDS011;6681;53.254;10.398;2023-05-10T06:01:51;3.73;;;3.03;;
13230;SDS011;6681;53.254;10.398;2023-05-10T06:04:17;5.83;;;3.37;;
13230;SDS011;6681;53.254;10.398;2023-05-10T06:06:43;3.37;;;3.10;;
13230;SDS011;6681;53.254;10.398;2023-05-10T06:09:09;6.23;;;3.73;;
13230;SDS011;6681;53.254;10.398;2023-05-10T06:11:35;3.20;;;2.90;;
13230;SDS011;6681;53.254;10.398;2023-05-10T06:14:01;3.77;;;3.13;;
13230;SDS011;6681;53.254;10.398;2023-05-10T06:16:28;4.50;;;3.63;;
13230;SDS011;6681;53.254;10.398;2023-05-10T06:18:54;5.07;;;3.20;;
13230;SDS011;6681;53.254;10.398;2023-05-10T06:21:20;5.90;;;3.70;;
13230;SDS011;6681;53.254;10.398;2023-05-10T06:23:46;4.03;;;3.53;;
13230;SDS011;6681;53.254;10.398;2023-05-10T06:26:11;4.20;;;3.67;;
13230;SDS011;6681;53.254;10.398;2023-05-10T06:28:38;5.70;;;3.27;;
13230;SDS011;6681;53.254;10.398;2023-05-10T06:31:04;4.30;;;3.30;;
13230;SDS011;6681;53.254;10.398;2023-05-10T06:33:31;2.83;;;2.60;;
13230;SDS011;6681;53.254;10.398;2023-05-10T06:35:56;6.27;;;3.60;;
13230;SDS011;6681;53.254;10.398;2023-05-10T06:38:22;4.30;;;3.43;;
13230;SDS011;6681;53.254;10.398;2023-05-10T06:40:48;7.10;;;4.80;;
13230;SDS011;6681;53.254;10.398;2023-05-10T06:43:14;4.77;;;3.47;;
13230;SDS011;6681;53.254;10.398;2023-05-10T06:45:39;3.37;;;3.07;;
13230;SDS011;6681;53.254;10.398;2023-05-10T06:48:06;4.30;;;3.50;;
13230;SDS011;6681;53.254;10.398;2023-05-10T06:50:31;4.60;;;3.43;;
13230;SDS011;6681;53.254;10.398;2023-05-10T06:52:58;4.70;;;3.13;;
13230;SDS011;6681;53.254;10.398;2023-05-10T06:55:24;4.03;;;3.60;;
13230;SDS011;6681;53.254;10.398;2023-05-10T06:57:49;2.73;;;2.53;;
13230;SDS011;6681;53.254;10.398;2023-05-10T07:00:15;2.70;;;2.50;;
13230;SDS011;6681;53.254;10.398;2023-05-10T07:02:42;4.43;;;2.80;;
13230;SDS011;6681;53.254;10.398;2023-05-10T07:05:08;3.63;;;3.10;;
13230;SDS011;6681;53.254;10.398;2023-05-10T07:07:34;4.47;;;3.33;;
13230;SDS011;6681;53.254;10.398;2023-05-10T07:10:00;4.30;;;3.10;;
13230;SDS011;6681;53.254;10.398;2023-05-10T07:12:25;4.40;;;3.10;;
13230;SDS011;6681;53.254;10.398;2023-05-10T07:14:51;3.00;;;2.80;;
13230;SDS011;6681;53.254;10.398;2023-05-10T07:17:17;2.67;;;2.40;;
13230;SDS011;6681;53.254;10.398;2023-05-10T07:19:43;7.23;;;3.13;;
13230;SDS011;6681;53.254;10.398;2023-05-10T07:22:08;3.33;;;3.03;;
13230;SDS011;6681;53.254;10.398;2023-05-10T07:24:34;4.77;;;3.20;;
13230;SDS011;6681;53.254;10.398;2023-05-10T07:27:00;3.23;;;2.90;;
13230;SDS011;6681;53.254;10.398;2023-05-10T07:29:26;4.03;;;2.83;;
13230;SDS011;6681;53.254;10.398;2023-05-10T07:31:51;5.13;;;3.93;;
13230;SDS011;6681;53.254;10.398;2023-05-10T07:34:17;4.33;;;2.73;;
13230;SDS011;6681;53.254;10.398;2023-05-10T07:36:43;4.13;;;3.40;;
13230;SDS011;6681;53.254;10.398;2023-05-10T07:39:11;5.07;;;3.43;;
13230;SDS011;6681;53.254;10.398;2023-05-10T07:41:37;4.23;;;3.03;;
13230;SDS011;6681;53.254;10.398;2023-05-10T07:44:04;3.07;;;2.77;;
13230;SDS011;6681;53.254;10.398;2023-05-10T07:46:30;3.47;;;3.17;;
13230;SDS011;6681;53.254;10.398;2023-05-10T07:48:55;5.03;;;3.63;;
13230;SDS011;6681;53.254;10.398;2023-05-10T07:51:21;6.83;;;3.57;;
13230;SDS011;6681;53.254;10.398;2023-05-10T07:53:47;3.27;;;2.97;;
13230;SDS011;6681;53.254;10.398;2023-05-10T07:58:50;3.50;;;3.17;;
13230;SDS011;6681;53.254;10.398;2023-05-10T08:01:16;3.83;;;3.00;;
13230;SDS011;6681;53.254;10.398;2023-05-10T08:03:41;3.97;;;2.70;;
13230;SDS011;6681;53.254;10.398;2023-05-10T08:06:07;4.03;;;2.67;;
13230;SDS011;6681;53.254;10.398;2023-05-10T08:08:32;4.43;;;3.80;;
13230;SDS011;6681;53.254;10.398;2023-05-10T08:10:58;3.77;;;3.33;;
13230;SDS011;6681;53.254;10.398;2023-05-10T08:13:24;4.27;;;3.53;;
13230;SDS011;6681;53.254;10.398;2023-05-10T08:15:49;4.57;;;3.03;;
13230;SDS011;6681;53.254;10.398;2023-05-10T08:18:17;6.60;;;3.13;;
13230;SDS011;6681;53.254;10.398;2023-05-10T08:20:43;4.67;;;2.90;;
13230;SDS011;6681;53.254;10.398;2023-05-10T08:23:09;6.43;;;4.10;;
13230;SDS011;6681;53.254;10.398;2023-05-10T08:25:35;5.90;;;3.57;;
13230;SDS011;6681;53.254;10.398;2023-05-10T08:28:00;5.03;;;3.73;;
13230;SDS011;6681;53.254;10.398;2023-05-10T08:30:26;4.13;;;3.43;;
13230;SDS011;6681;53.254;10.398;2023-05-10T08:32:51;5.07;;;3.37;;
13230;SDS011;6681;53.254;10.398;2023-05-10T08:35:17;4.53;;;3.13;;
13230;SDS011;6681;53.254;10.398;2023-05-10T08:37:42;3.40;;;2.90;;
13230;SDS011;6681;53.254;10.398;2023-05-10T08:40:08;4.83;;;3.90;;
13230;SDS011;6681;53.254;10.398;2023-05-10T08:42:36;7.53;;;3.83;;
13230;SDS011;6681;53.254;10.398;2023-05-10T08:45:06;7.67;;;3.53;;
13230;SDS011;6681;53.254;10.398;2023-05-10T08:47:34;4.83;;;4.33;;
13230;SDS011;6681;53.254;10.398;2023-05-10T08:50:02;9.80;;;5.07;;
13230;SDS011;6681;53.254;10.398;2023-05-10T08:52:29;7.50;;;4.17;;
13230;SDS011;6681;53.254;10.398;2023-05-10T08:54:57;4.70;;;3.40;;
13230;SDS011;6681;53.254;10.398;2023-05-10T08:57:23;8.67;;;3.83;;
13230;SDS011;6681;53.254;10.398;2023-05-10T08:59:49;4.20;;;3.77;;
13230;SDS011;6681;53.254;10.398;2023-05-10T09:02:15;5.27;;;3.60;;
13230;SDS011;6681;53.254;10.398;2023-05-10T09:04:43;5.40;;;4.83;;
13230;SDS011;6681;53.254;10.398;2023-05-10T09:07:09;6.27;;;3.80;;
13230;SDS011;6681;53.254;10.398;2023-05-10T09:09:35;5.73;;;4.93;;
13230;SDS011;6681;53.254;10.398;2023-05-10T09:12:02;3.33;;;3.03;;
13230;SDS011;6681;53.254;10.398;2023-05-10T09:14:27;10.03;;;3.27;;
13230;SDS011;6681;53.254;10.398;2023-05-10T09:16:54;4.33;;;3.93;;
13230;SDS011;6681;53.254;10.398;2023-05-10T09:19:21;4.93;;;4.43;;
13230;SDS011;6681;53.254;10.398;2023-05-10T09:21:46;5.23;;;4.23;;
13230;SDS011;6681;53.254;10.398;2023-05-10T09:24:13;5.90;;;4.00;;
13230;SDS011;6681;53.254;10.398;2023-05-10T09:26:46;9.80;;;4.57;;
13230;SDS011;6681;53.254;10.398;2023-05-10T09:29:16;8.07;;;4.03;;
13230;SDS011;6681;53.254;10.398;2023-05-10T09:31:46;6.47;;;4.17;;
13230;SDS011;6681;53.254;10.398;2023-05-10T09:34:20;3.80;;;3.07;;
13230;SDS011;6681;53.254;10.398;2023-05-10T09:36:57;6.73;;;3.63;;
13230;SDS011;6681;53.254;10.398;2023-05-10T09:39:34;5.53;;;4.27;;
13230;SDS011;6681;53.254;10.398;2023-05-10T09:42:03;7.17;;;4.60;;
13230;SDS011;6681;53.254;10.398;2023-05-10T09:44:31;4.03;;;3.53;;
13230;SDS011;6681;53.254;10.398;2023-05-10T09:46:58;3.73;;;3.07;;
13230;SDS011;6681;53.254;10.398;2023-05-10T09:49:24;4.17;;;3.77;;
13230;SDS011;6681;53.254;10.398;2023-05-10T09:51:59;5.57;;;5.07;;
13230;SDS011;6681;53.254;10.398;2023-05-10T09:54:26;5.33;;;3.73;;
13230;SDS011;6681;53.254;10.398;2023-05-10T09:56:52;5.00;;;4.10;;
13230;SDS011;6681;53.254;10.398;2023-05-10T09:59:17;6.43;;;5.03;;
13230;SDS011;6681;53.254;10.398;2023-05-10T10:01:48;9.17;;;4.50;;
13230;SDS011;6681;53.254;10.398;2023-05-10T10:04:14;6.40;;;4.40;;
13230;SDS011;6681;53.254;10.398;2023-05-10T10:06:41;4.43;;;3.93;;
13230;SDS011;6681;53.254;10.398;2023-05-10T10:09:07;4.63;;;4.20;;
13230;SDS011;6681;53.254;10.398;2023-05-10T10:11:36;5.53;;;4.73;;
13230;SDS011;6681;53.254;10.398;2023-05-10T10:14:03;4.10;;;3.80;;
13230;SDS011;6681;53.254;10.398;2023-05-10T10:16:30;6.77;;;4.63;;
13230;SDS011;6681;53.254;10.398;2023-05-10T10:18:56;5.27;;;4.80;;
13230;SDS011;6681;53.254;10.398;2023-05-10T10:21:23;5.40;;;4.40;;
13230;SDS011;6681;53.254;10.398;2023-05-10T10:23:49;6.37;;;4.07;;
13230;SDS011;6681;53.254;10.398;2023-05-10T10:26:15;5.27;;;4.33;;
13230;SDS011;6681;53.254;10.398;2023-05-10T10:28:49;4.73;;;4.33;;
13230;SDS011;6681;53.254;10.398;2023-05-10T10:36:53;19.73;;;5.43;;
13230;SDS011;6681;53.254;10.398;2023-05-10T10:39:20;6.13;;;4.57;;
13230;SDS011;6681;53.254;10.398;2023-05-10T10:41:56;6.40;;;5.03;;
13230;SDS011;6681;53.254;10.398;2023-05-10T10:54:52;7.73;;;6.60;;
13230;SDS011;6681;53.254;10.398;2023-05-10T10:57:18;7.33;;;6.53;;
13230;SDS011;6681;53.254;10.398;2023-05-10T10:59:46;6.00;;;5.50;;
13230;SDS011;6681;53.254;10.398;2023-05-10T11:02:55;7.43;;;6.50;;
13230;SDS011;6681;53.254;10.398;2023-05-10T11:05:26;8.50;;;6.23;;
13230;SDS011;6681;53.254;10.398;2023-05-10T11:07:56;6.87;;;6.17;;
13230;SDS011;6681;53.254;10.398;2023-05-10T11:10:23;7.13;;;6.43;;
13230;SDS011;6681;53.254;10.398;2023-05-10T11:13:02;7.47;;;6.77;;
13230;SDS011;6681;53.254;10.398;2023-05-10T11:15:38;8.50;;;7.70;;
13230;SDS011;6681;53.254;10.398;2023-05-10T11:21:08;8.60;;;6.60;;
13230;SDS011;6681;53.254;10.398;2023-05-10T11:26:16;7.63;;;6.83;;
13230;SDS011;6681;53.254;10.398;2023-05-10T11:28:46;9.87;;;7.87;;
13230;SDS011;6681;53.254;10.398;2023-05-10T11:31:13;8.97;;;8.03;;
13230;SDS011;6681;53.254;10.398;2023-05-10T11:36:14;11.00;;;6.87;;
13230;SDS011;6681;53.254;10.398;2023-05-10T11:38:41;7.97;;;7.17;;
13230;SDS011;6681;53.254;10.398;2023-05-10T11:41:10;8.40;;;7.60;;
13230;SDS011;6681;53.254;10.398;2023-05-10T11:43:38;9.07;;;8.17;;
13230;SDS011;6681;53.254;10.398;2023-05-10T11:46:06;8.03;;;7.03;;
13230;SDS011;6681;53.254;10.398;2023-05-10T11:48:35;8.60;;;7.80;;
13230;SDS011;6681;53.254;10.398;2023-05-10T11:51:06;8.03;;;7.23;;
13230;SDS011;6681;53.254;10.398;2023-05-10T11:53:35;7.83;;;7.03;;
13230;SDS011;6681;53.254;10.398;2023-05-10T11:56:10;9.37;;;8.27;;
13230;SDS011;6681;53.254;10.398;2023-05-10T11:58:37;10.40;;;7.80;;
13230;SDS011;6681;53.254;10.398;2023-05-10T12:01:04;8.73;;;7.83;;
13230;SDS011;6681;53.254;10.398;2023-05-10T12:03:30;7.57;;;6.87;;
13230;SDS011;6681;53.254;10.398;2023-05-10T12:05:57;7.67;;;6.90;;
13230;SDS011;6681;53.254;10.398;2023-05-10T12:08:24;8.37;;;7.43;;
13230;SDS011;6681;53.254;10.398;2023-05-10T12:10:51;8.57;;;7.70;;
13230;SDS011;6681;53.254;10.398;2023-05-10T12:13:18;9.80;;;8.33;;
13230;SDS011;6681;53.254;10.398;2023-05-10T12:15:45;11.90;;;7.93;;
13230;SDS011;6681;53.254;10.398;2023-05-10T12:18:14;8.67;;;7.87;;
13230;SDS011;6681;53.254;10.398;2023-05-10T12:20:50;12.50;;;7.60;;
13230;SDS011;6681;53.254;10.398;2023-05-10T12:23:18;9.40;;;6.67;;
13230;SDS011;6681;53.254;10.398;2023-05-10T12:25:45;9.47;;;7.97;;
13230;SDS011;6681;53.254;10.398;2023-05-10T12:28:11;8.27;;;7.53;;
13230;SDS011;6681;53.254;10.398;2023-05-10T12:30:37;9.10;;;8.20;;
13230;SDS011;6681;53.254;10.398;2023-05-10T12:35:46;9.03;;;7.93;;
13230;SDS011;6681;53.254;10.398;2023-05-10T12:38:29;7.33;;;6.57;;
13230;SDS011;6681;53.254;10.398;2023-05-10T12:40:59;10.30;;;7.27;;
13230;SDS011;6681;53.254;10.398;2023-05-10T12:43:26;8.87;;;8.03;;
13230;SDS011;6681;53.254;10.398;2023-05-10T12:45:52;8.30;;;6.60;;
13230;SDS011;6681;53.254;10.398;2023-05-10T12:48:18;7.47;;;6.77;;
13230;SDS011;6681;53.254;10.398;2023-05-10T12:50:44;6.70;;;6.10;;
13230;SDS011;6681;53.254;10.398;2023-05-10T12:53:10;6.60;;;5.97;;
13230;SDS011;6681;53.254;10.398;2023-05-10T12:55:36;15.33;;;11.77;;
13230;SDS011;6681;53.254;10.398;2023-05-10T12:58:01;9.70;;;8.80;;
13230;SDS011;6681;53.254;10.398;2023-05-10T13:00:27;8.60;;;7.60;;
13230;SDS011;6681;53.254;10.398;2023-05-10T13:02:53;7.27;;;6.50;;
13230;SDS011;6681;53.254;10.398;2023-05-10T13:05:18;6.53;;;5.93;;
13230;SDS011;6681;53.254;10.398;2023-05-10T13:07:44;7.30;;;6.70;;
13230;SDS011;6681;53.254;10.398;2023-05-10T13:10:10;9.27;;;6.17;;
13230;SDS011;6681;53.254;10.398;2023-05-10T13:12:36;6.57;;;5.17;;
13230;SDS011;6681;53.254;10.398;2023-05-10T13:15:02;7.03;;;6.40;;
13230;SDS011;6681;53.254;10.398;2023-05-10T13:17:28;10.23;;;7.17;;
13230;SDS011;6681;53.254;10.398;2023-05-10T13:19:53;6.07;;;4.50;;
13230;SDS011;6681;53.254;10.398;2023-05-10T13:22:19;5.27;;;4.77;;
13230;SDS011;6681;53.254;10.398;2023-05-10T13:24:47;5.57;;;4.93;;
13230;SDS011;6681;53.254;10.398;2023-05-10T13:27:13;5.23;;;4.80;;
13230;SDS011;6681;53.254;10.398;2023-05-10T13:29:40;5.23;;;4.73;;
13230;SDS011;6681;53.254;10.398;2023-05-10T13:32:06;5.93;;;5.33;;
13230;SDS011;6681;53.254;10.398;2023-05-10T13:34:31;4.77;;;4.37;;
13230;SDS011;6681;53.254;10.398;2023-05-10T13:36:57;5.00;;;4.53;;
13230;SDS011;6681;53.254;10.398;2023-05-10T13:39:23;5.60;;;5.10;;
13230;SDS011;6681;53.254;10.398;2023-05-10T13:41:48;5.30;;;4.63;;
13230;SDS011;6681;53.254;10.398;2023-05-10T13:44:14;5.17;;;4.67;;
13230;SDS011;6681;53.254;10.398;2023-05-10T13:46:40;5.40;;;5.00;;
13230;SDS011;6681;53.254;10.398;2023-05-10T13:49:08;5.17;;;4.73;;
13230;SDS011;6681;53.254;10.398;2023-05-10T13:51:34;4.40;;;4.00;;
13230;SDS011;6681;53.254;10.398;2023-05-10T13:54:01;5.43;;;5.00;;
13230;SDS011;6681;53.254;10.398;2023-05-10T13:56:27;4.27;;;3.87;;
13230;SDS011;6681;53.254;10.398;2023-05-10T13:58:53;5.17;;;4.67;;
13230;SDS011;6681;53.254;10.398;2023-05-10T14:01:18;3.83;;;3.53;;
13230;SDS011;6681;53.254;10.398;2023-05-10T14:03:44;5.10;;;4.67;;
13230;SDS011;6681;53.254;10.398;2023-05-10T14:06:10;5.13;;;4.60;;
13230;SDS011;6681;53.254;10.398;2023-05-10T14:08:35;5.03;;;4.53;;
13230;SDS011;6681;53.254;10.398;2023-05-10T14:11:01;4.17;;;3.87;;
13230;SDS011;6681;53.254;10.398;2023-05-10T14:13:27;6.03;;;4.80;;
13230;SDS011;6681;53.254;10.398;2023-05-10T14:15:53;4.73;;;4.33;;
13230;SDS011;6681;53.254;10.398;2023-05-10T14:18:19;5.00;;;4.40;;
13230;SDS011;6681;53.254;10.398;2023-05-10T14:20:45;4.30;;;3.90;;
13230;SDS011;6681;53.254;10.398;2023-05-10T14:23:11;4.87;;;4.37;;
13230;SDS011;6681;53.254;10.398;2023-05-10T14:25:37;3.20;;;2.90;;
13230;SDS011;6681;53.254;10.398;2023-05-10T14:28:05;3.63;;;3.30;;
13230;SDS011;6681;53.254;10.398;2023-05-10T14:30:31;3.83;;;3.53;;
13230;SDS011;6681;53.254;10.398;2023-05-10T14:32:59;4.13;;;3.83;;
13230;SDS011;6681;53.254;10.398;2023-05-10T14:35:26;7.27;;;3.83;;
13230;SDS011;6681;53.254;10.398;2023-05-10T14:37:52;3.23;;;3.03;;
13230;SDS011;6681;53.254;10.398;2023-05-10T14:40:18;3.30;;;3.00;;
13230;SDS011;6681;53.254;10.398;2023-05-10T14:42:43;3.27;;;3.07;;
13230;SDS011;6681;53.254;10.398;2023-05-10T14:45:09;2.93;;;2.73;;
13230;SDS011;6681;53.254;10.398;2023-05-10T14:47:36;4.37;;;2.93;;
13230;SDS011;6681;53.254;10.398;2023-05-10T14:50:01;3.47;;;2.60;;
13230;SDS011;6681;53.254;10.398;2023-05-10T14:52:27;3.50;;;2.73;;
13230;SDS011;6681;53.254;10.398;2023-05-10T14:54:52;2.53;;;2.33;;
13230;SDS011;6681;53.254;10.398;2023-05-10T14:57:18;4.93;;;3.07;;
13230;SDS011;6681;53.254;10.398;2023-05-10T14:59:44;3.10;;;2.10;;
13230;SDS011;6681;53.254;10.398;2023-05-10T15:02:10;2.10;;;1.90;;
13230;SDS011;6681;53.254;10.398;2023-05-10T15:04:36;1.93;;;1.83;;
13230;SDS011;6681;53.254;10.398;2023-05-10T15:07:01;2.70;;;2.50;;
13230;SDS011;6681;53.254;10.398;2023-05-10T15:09:28;2.43;;;2.23;;
13230;SDS011;6681;53.254;10.398;2023-05-10T15:11:54;1.87;;;1.77;;
13230;SDS011;6681;53.254;10.398;2023-05-10T15:14:19;2.37;;;2.27;;
13230;SDS011;6681;53.254;10.398;2023-05-10T15:16:45;2.03;;;1.83;;
13230;SDS011;6681;53.254;10.398;2023-05-10T15:19:11;3.03;;;2.50;;
13230;SDS011;6681;53.254;10.398;2023-05-10T15:21:37;1.97;;;1.87;;
13230;SDS011;6681;53.254;10.398;2023-05-10T15:24:06;2.23;;;2.03;;
13230;SDS011;6681;53.254;10.398;2023-05-10T15:26:33;3.00;;;2.40;;
13230;SDS011;6681;53.254;10.398;2023-05-10T15:28:58;2.13;;;1.93;;
13230;SDS011;6681;53.254;10.398;2023-05-10T15:31:24;2.80;;;2.60;;
13230;SDS011;6681;53.254;10.398;2023-05-10T15:33:50;2.37;;;2.17;;
13230;SDS011;6681;53.254;10.398;2023-05-10T15:36:16;3.07;;;2.80;;